Time;durP1;ratioP1;P1;durP2;ratioP2;P2;SDS_P1;SDS_P2;PMS_P1;PMS_P2;Temp;Humidity;BMP_temperature;BMP_pressure;BME280_temperature;BME280_humidity;BME280_pressure;Samples;Min_cycle;Max_cycle;Signal;HPM_P1;HPM_P2
2023/03/01 00:01:41;;;;;;;15.90;10.05;;;;;;;-0.63;62.26;101703.44;5094039;28;20067;-77
2023/03/01 00:04:09;;;;;;;20.42;12.50;;;;;;;-0.59;61.62;101695.63;5092925;28;20060;-77
2023/03/01 00:06:37;;;;;;;17.45;11.77;;;;;;;-0.59;61.55;101681.94;5093056;28;20052;-77
2023/03/01 00:09:04;;;;;;;21.83;13.88;;;;;;;-0.57;61.29;101679.84;5092851;28;20052;-77
2023/03/01 00:11:33;;;;;;;19.98;13.93;;;;;;;-0.61;61.46;101686.78;5093414;28;20060;-77
2023/03/01 00:14:06;;;;;;;20.85;12.93;;;;;;;-0.63;61.38;101678.81;5092991;28;20512;-77
2023/03/01 00:16:41;;;;;;;16.83;11.57;;;;;;;-0.65;62.09;101678.19;5093021;28;20055;-77
2023/03/01 00:19:10;;;;;;;15.50;10.68;;;;;;;-0.70;62.51;101671.66;5093048;28;20059;-77
2023/03/01 00:21:41;;;;;;;14.48;10.90;;;;;;;-0.77;61.92;101668.06;5093556;28;20055;-77
2023/03/01 00:24:10;;;;;;;15.25;11.25;;;;;;;-0.79;62.13;101670.19;5092330;28;20430;-77
2023/03/01 00:26:38;;;;;;;13.52;10.40;;;;;;;-0.79;61.44;101670.19;5092205;28;20059;-77
2023/03/01 00:29:11;;;;;;;12.60;9.55;;;;;;;-0.83;61.82;101662.38;5092819;28;20052;-76
2023/03/01 00:31:38;;;;;;;11.10;9.10;;;;;;;-0.85;62.34;101667.22;5092700;28;20048;-77
2023/03/01 00:34:07;;;;;;;12.73;9.57;;;;;;;-0.93;62.00;101667.41;5093001;28;20492;-77
2023/03/01 00:36:36;;;;;;;16.98;10.57;;;;;;;-1.03;61.90;101672.44;5092375;28;20052;-77
2023/03/01 00:39:06;;;;;;;11.93;9.38;;;;;;;-0.99;61.79;101662.78;5090934;28;20063;-76
2023/03/01 00:41:34;;;;;;;13.13;9.55;;;;;;;-0.96;62.06;101658.81;5092882;28;20411;-77
2023/03/01 00:44:02;;;;;;;13.73;9.10;;;;;;;-1.01;61.36;101656.66;5092240;28;20505;-76
2023/03/01 00:46:33;;;;;;;12.15;9.27;;;;;;;-1.03;61.43;101656.03;5092967;28;20056;-77
2023/03/01 00:49:02;;;;;;;12.63;9.15;;;;;;;-1.08;62.08;101650.38;5092547;28;20059;-77
2023/03/01 00:51:30;;;;;;;10.70;8.63;;;;;;;-1.16;61.89;101653.28;5092499;28;20428;-77
2023/03/01 00:53:59;;;;;;;11.27;8.32;;;;;;;-1.27;61.59;101647.38;5092776;28;20056;-76
2023/03/01 00:56:27;;;;;;;9.90;7.88;;;;;;;-1.29;61.65;101646.75;5092596;28;20056;-77
2023/03/01 00:58:55;;;;;;;11.50;8.27;;;;;;;-1.31;62.46;101646.09;5092464;28;20131;-77
2023/03/01 01:01:27;;;;;;;12.70;8.82;;;;;;;-1.34;62.75;101635.59;5092126;28;20060;-77
2023/03/01 01:03:58;;;;;;;11.75;8.40;;;;;;;-1.35;62.58;101631.16;5092425;28;20416;-75
2023/03/01 01:06:30;;;;;;;13.38;8.38;;;;;;;-1.42;63.13;101643.97;5092415;28;20067;-74
2023/03/01 01:09:07;;;;;;;11.95;8.07;;;;;;;-1.40;62.75;101630.13;5092499;28;20060;-76
2023/03/01 01:11:36;;;;;;;12.73;8.70;;;;;;;-1.41;62.16;101640.19;5092879;28;20063;-77
2023/03/01 01:14:04;;;;;;;11.13;8.77;;;;;;;-1.45;62.26;101633.44;5092733;28;20052;-77
2023/03/01 01:16:33;;;;;;;12.30;9.20;;;;;;;-1.50;62.88;101625.88;5092312;28;20792;-77
2023/03/01 01:19:02;;;;;;;13.57;8.95;;;;;;;-1.50;62.61;101614.94;5092375;28;20060;-76
2023/03/01 01:21:30;;;;;;;12.20;8.30;;;;;;;-1.48;62.15;101612.03;5092814;28;20071;-77
2023/03/01 01:24:03;;;;;;;9.98;7.97;;;;;;;-1.48;62.70;101614.75;5092161;28;20048;-76
2023/03/01 01:26:32;;;;;;;12.75;8.63;;;;;;;-1.52;62.49;101625.25;5092250;28;20059;-77
2023/03/01 01:29:01;;;;;;;10.68;8.38;;;;;;;-1.52;62.93;101627.13;5092144;28;20489;-76
2023/03/01 01:31:29;;;;;;;11.65;8.30;;;;;;;-1.57;63.18;101616.84;5092158;28;20488;-77
2023/03/01 01:33:58;;;;;;;12.40;8.73;;;;;;;-1.58;62.42;101617.88;5092016;28;20056;-77
2023/03/01 01:36:39;;;;;;;;;;;;;;;;;;;;;
2023/03/01 01:39:07;;;;;;;11.23;8.07;;;;;;;-1.65;63.17;101623.31;5094440;28;20052;-77
2023/03/01 01:41:35;;;;;;;11.63;8.20;;;;;;;-1.74;63.39;101620.94;5096390;28;20063;-78
2023/03/01 01:44:15;;;;;;;11.90;8.40;;;;;;;-1.68;62.56;101621.00;5095326;28;20511;-77
2023/03/01 01:46:45;;;;;;;11.52;8.57;;;;;;;-1.67;63.29;101619.94;5096056;28;20048;-77
2023/03/01 01:49:20;;;;;;;12.95;8.75;;;;;;;-1.69;62.74;101622.03;5095345;28;20044;-77
2023/03/01 01:51:57;;;;;;;14.30;9.55;;;;;;;-1.69;62.81;101626.66;5096054;28;20052;-77
2023/03/01 01:54:28;;;;;;;12.00;7.65;;;;;;;-1.71;62.79;101621.41;5095496;28;20488;-77
2023/03/01 01:57:00;;;;;;;13.73;9.38;;;;;;;-1.70;63.50;101614.03;5095263;28;20055;-77
2023/03/01 01:59:31;;;;;;;13.18;9.32;;;;;;;-1.68;63.76;101607.34;5095465;28;20067;-77
2023/03/01 02:02:00;;;;;;;11.18;9.00;;;;;;;-1.73;63.42;101601.63;5095640;28;20056;-77
2023/03/01 02:04:27;;;;;;;11.25;8.38;;;;;;;-1.82;62.93;101613.81;5078465;28;20063;-77
2023/03/01 02:07:00;;;;;;;10.63;8.15;;;;;;;-1.82;62.83;101599.31;5093395;28;20055;-76
2023/03/01 02:09:29;;;;;;;12.90;8.48;;;;;;;-1.86;63.25;101590.69;5095803;28;20138;-77
2023/03/01 02:11:56;;;;;;;10.15;7.70;;;;;;;-1.89;63.37;101589.22;5095499;28;20070;-77
2023/03/01 02:14:24;;;;;;;11.35;8.82;;;;;;;-1.89;63.13;101593.81;5094921;28;20052;-76
2023/03/01 02:16:51;;;;;;;13.57;8.82;;;;;;;-1.92;62.66;101597.78;5095525;28;20071;-77
2023/03/01 02:19:27;;;;;;;11.05;8.10;;;;;;;-1.96;63.69;101588.31;5095168;28;20393;-77
2023/03/01 02:22:06;;;;;;;11.93;8.75;;;;;;;-2.00;63.00;101586.22;5095087;28;20412;-76
2023/03/01 02:24:43;;;;;;;14.27;9.52;;;;;;;-2.00;63.58;101600.69;5095171;28;20059;-77
2023/03/01 02:27:12;;;;;;;12.25;8.30;;;;;;;-2.00;63.51;101591.66;5094884;28;20418;-77
2023/03/01 02:29:43;;;;;;;11.37;8.77;;;;;;;-2.00;63.20;101591.66;5095242;28;20483;-77
2023/03/01 02:32:13;;;;;;;12.60;8.43;;;;;;;-2.05;63.74;101590.38;5094754;28;20466;-77
2023/03/01 02:34:41;;;;;;;10.55;8.07;;;;;;;-2.05;63.16;101595.84;5095108;28;20060;-77
2023/03/01 02:37:14;;;;;;;12.93;8.85;;;;;;;-2.07;63.66;101591.66;5095260;28;20060;-77
2023/03/01 02:39:47;;;;;;;11.95;8.48;;;;;;;-2.08;63.69;101598.13;5094789;28;20060;-77
2023/03/01 02:42:21;;;;;;;11.35;8.05;;;;;;;-2.08;62.82;101587.22;5094462;28;20067;-77
2023/03/01 02:44:51;;;;;;;11.07;8.18;;;;;;;-2.15;62.76;101587.19;5094571;28;20056;-77
2023/03/01 02:47:18;;;;;;;;;;;;;;;-2.19;62.77;101594.09;5095003;28;20059;-76
2023/03/01 02:49:45;;;;;;;12.77;8.70;;;;;;;-2.27;62.75;101595.13;5093893;28;19920;-77
2023/03/01 02:52:31;;;;;;;12.48;8.52;;;;;;;-2.28;62.90;101590.69;5094038;28;20047;-77
2023/03/01 02:55:04;;;;;;;13.40;8.88;;;;;;;-2.31;63.22;101584.78;5094463;28;20409;-76
2023/03/01 02:57:39;;;;;;;12.60;9.13;;;;;;;-2.34;64.08;101586.03;5094684;28;20059;-77
2023/03/01 03:00:18;;;;;;;13.55;8.98;;;;;;;-2.36;63.31;101588.13;5094800;28;20110;-77
2023/03/01 03:02:47;;;;;;;12.30;9.30;;;;;;;-2.37;63.75;101581.00;5094056;28;20130;-78
2023/03/01 03:05:19;;;;;;;12.85;8.70;;;;;;;-2.36;63.75;101581.84;5094102;28;20063;-76
2023/03/01 03:07:49;;;;;;;12.10;8.57;;;;;;;-2.33;63.15;101581.41;5094033;28;20055;-77
2023/03/01 03:10:20;;;;;;;13.23;8.45;;;;;;;-2.32;63.63;101577.66;5094182;28;20063;-77
2023/03/01 03:12:53;;;;;;;12.35;9.00;;;;;;;-2.32;63.75;101574.94;5094031;28;20071;-77
2023/03/01 03:15:23;;;;;;;12.30;8.13;;;;;;;-2.35;63.50;101573.47;5093701;28;20060;-77
2023/03/01 03:17:52;;;;;;;12.65;8.73;;;;;;;-2.38;63.30;101575.75;5094389;28;20059;-77
2023/03/01 03:20:22;;;;;;;10.88;8.75;;;;;;;-2.40;64.12;101570.47;5093713;28;20055;-77
2023/03/01 03:22:51;;;;;;;;;;;;;;;-2.45;64.05;101568.34;5094127;28;20062;-77
2023/03/01 03:25:19;;;;;;;12.20;8.45;;;;;;;-2.45;63.88;101572.97;5094245;28;19920;-77
2023/03/01 03:27:48;;;;;;;11.80;8.85;;;;;;;-2.48;64.11;101570.63;5094128;28;20054;-77
2023/03/01 03:30:18;;;;;;;12.73;8.70;;;;;;;-2.48;63.21;101568.78;5094422;28;20407;-70
2023/03/01 03:32:51;;;;;;;10.57;8.13;;;;;;;-2.48;64.19;101578.81;5093662;28;20060;-71
2023/03/01 03:35:20;;;;;;;11.57;8.40;;;;;;;-2.50;64.03;101584.50;5094287;28;20060;-71
2023/03/01 03:38:03;;;;;;;11.32;8.40;;;;;;;-2.51;63.40;101580.06;5093464;28;20063;-71
2023/03/01 03:40:33;;;;;;;12.90;9.55;;;;;;;-2.56;63.62;101566.19;5093719;28;20503;-70
2023/03/01 03:43:00;;;;;;;;;;;;;;;-2.72;63.63;101556.44;5094025;28;20070;-70
2023/03/01 03:45:28;;;;;;;12.73;8.95;;;;;;;-2.72;63.80;101561.91;5093520;28;19927;-70
2023/03/01 03:47:56;;;;;;;11.70;8.77;;;;;;;-2.70;63.78;101554.34;5092865;28;20060;-70
2023/03/01 03:50:25;;;;;;;13.13;8.88;;;;;;;-2.69;63.94;101544.28;5093222;28;20056;-70
2023/03/01 03:52:52;;;;;;;12.45;9.20;;;;;;;-2.75;63.87;101534.16;5093638;28;20058;-70
2023/03/01 03:55:20;;;;;;;12.77;8.98;;;;;;;-2.72;64.06;101539.25;5093440;28;20056;-70
2023/03/01 03:57:51;;;;;;;12.48;8.18;;;;;;;-2.72;63.79;101531.06;5093127;28;20067;-70
2023/03/01 04:00:20;;;;;;;10.35;7.85;;;;;;;-2.76;64.36;101533.34;5093265;28;20479;-70
2023/03/01 04:02:49;;;;;;;11.57;8.52;;;;;;;-2.74;63.60;101538.59;5092345;28;20404;-70
2023/03/01 04:05:19;;;;;;;12.57;7.82;;;;;;;-2.76;63.79;101532.50;5093123;28;20052;-71
2023/03/01 04:07:47;;;;;;;13.32;8.63;;;;;;;-2.82;63.92;101531.41;5092893;28;20066;-70
2023/03/01 04:10:19;;;;;;;11.95;8.85;;;;;;;-2.88;63.63;101549.44;5092818;28;20067;-70
2023/03/01 04:12:46;;;;;;;13.82;8.93;;;;;;;-2.89;63.78;101544.16;5092944;28;20067;-71
2023/03/01 04:15:14;;;;;;;12.50;8.98;;;;;;;-2.90;64.34;101551.50;5093021;28;20476;-72
2023/03/01 04:17:41;;;;;;;12.50;8.40;;;;;;;-2.87;64.09;101550.25;5092486;28;20056;-70
2023/03/01 04:20:17;;;;;;;12.80;8.73;;;;;;;-2.88;64.05;101546.69;5093139;28;20056;-70
2023/03/01 04:22:48;;;;;;;11.10;8.57;;;;;;;-2.90;64.16;101547.91;5092656;28;20048;-70
2023/03/01 04:25:18;;;;;;;12.45;8.32;;;;;;;-2.90;64.34;101540.59;5092865;28;20082;-70
2023/03/01 04:27:46;;;;;;;13.50;8.75;;;;;;;-2.90;63.93;101546.06;5092634;28;20412;-70
2023/03/01 04:30:14;;;;;;;12.63;8.45;;;;;;;-2.91;64.30;101552.53;5092222;28;20052;-70
2023/03/01 04:32:41;;;;;;;14.13;9.30;;;;;;;-2.91;64.37;101558.00;5092584;28;20052;-70
2023/03/01 04:35:09;;;;;;;12.15;8.50;;;;;;;-2.94;64.21;101552.94;5093045;28;20047;-70
2023/03/01 04:37:37;;;;;;;14.88;10.10;;;;;;;-2.92;64.48;101555.44;5093352;28;20052;-77
2023/03/01 04:40:15;;;;;;;13.50;8.90;;;;;;;-2.97;64.51;101547.03;5092865;28;20060;-77
2023/03/01 04:42:43;;;;;;;14.57;9.95;;;;;;;-2.93;64.80;101546.44;5092802;28;20048;-77
2023/03/01 04:45:12;;;;;;;14.32;9.88;;;;;;;-2.97;65.06;101539.69;5092462;28;20063;-77
2023/03/01 04:47:41;;;;;;;16.67;10.20;;;;;;;-3.11;64.34;101544.22;5092750;28;20059;-77
2023/03/01 04:50:09;;;;;;;11.75;8.70;;;;;;;-3.01;64.27;101545.75;5093211;28;20056;-76
2023/03/01 04:52:37;;;;;;;12.38;8.70;;;;;;;-3.00;64.06;101548.28;5093191;28;20052;-77
2023/03/01 04:55:07;;;;;;;13.75;9.10;;;;;;;-3.01;63.82;101545.75;5092651;28;20056;-77
2023/03/01 04:57:35;;;;;;;12.95;8.57;;;;;;;-3.08;63.50;101545.69;5092790;28;20087;-77
2023/03/01 05:00:19;;;;;;;10.80;7.78;;;;;;;-3.12;63.61;101550.69;5092883;28;20469;-77
2023/03/01 05:02:52;;;;;;;14.40;9.63;;;;;;;-3.13;63.82;101553.63;5092740;28;20063;-77
2023/03/01 05:05:25;;;;;;;13.70;9.07;;;;;;;-3.12;63.39;101552.59;5092302;28;20067;-77
2023/03/01 05:07:56;;;;;;;13.05;9.18;;;;;;;-3.20;63.72;101553.56;5092342;28;20063;-77
2023/03/01 05:10:26;;;;;;;14.10;8.90;;;;;;;-3.19;63.62;101554.41;5092450;28;20059;-76
2023/03/01 05:12:57;;;;;;;14.77;8.55;;;;;;;-3.17;63.80;101549.59;5092093;28;20056;-76
2023/03/01 05:15:26;;;;;;;13.43;8.30;;;;;;;-3.18;63.63;101553.38;5096945;28;20078;-77
2023/03/01 05:17:55;;;;;;;14.47;9.83;;;;;;;-3.34;63.61;101546.31;5096869;28;20059;-77
2023/03/01 05:20:23;;;;;;;13.20;9.70;;;;;;;-3.33;63.52;101545.28;5096620;28;20474;-77
2023/03/01 05:22:51;;;;;;;13.50;10.05;;;;;;;-3.33;63.94;101542.56;5095934;28;20052;-77
2023/03/01 05:25:19;;;;;;;15.23;9.55;;;;;;;-3.42;63.51;101541.00;5096042;28;20056;-77
2023/03/01 05:27:48;;;;;;;17.38;10.30;;;;;;;-3.41;63.54;101537.25;5096141;28;20063;-77
2023/03/01 05:30:17;;;;;;;14.10;9.85;;;;;;;-3.43;63.91;101525.69;5096940;28;20056;-77
2023/03/01 05:32:46;;;;;;;13.23;8.98;;;;;;;-3.44;63.93;101530.31;5096414;28;20480;-77
2023/03/01 05:35:17;;;;;;;13.90;9.55;;;;;;;-3.38;63.73;101528.66;5096390;28;20052;-77
2023/03/01 05:37:46;;;;;;;16.05;10.52;;;;;;;-3.39;63.97;101522.38;5095906;28;20056;-77
2023/03/01 05:40:17;;;;;;;15.50;10.02;;;;;;;-3.44;63.93;101524.88;5096358;28;20511;-77
2023/03/01 05:42:45;;;;;;;15.90;9.80;;;;;;;-3.47;64.17;101525.25;5096135;28;20048;-77
2023/03/01 05:45:17;;;;;;;16.35;10.18;;;;;;;-3.48;64.03;101529.84;5095802;28;20405;-76
2023/03/01 05:47:51;;;;;;;14.05;9.70;;;;;;;-3.44;63.69;101535.75;5095553;28;20504;-77
2023/03/01 05:50:20;;;;;;;16.83;10.85;;;;;;;-3.42;63.86;101530.97;5095321;28;20511;-77
2023/03/01 05:52:49;;;;;;;14.15;9.85;;;;;;;-3.48;63.74;101532.59;5095464;28;20408;-77
2023/03/01 05:55:18;;;;;;;12.93;8.63;;;;;;;-3.45;63.92;101534.06;5095816;28;20060;-77
2023/03/01 05:57:46;;;;;;;13.15;9.40;;;;;;;-3.43;63.80;101534.72;5095286;28;20052;-77
2023/03/01 06:00:18;;;;;;;15.23;9.98;;;;;;;-3.45;63.21;101538.69;5095126;28;20059;-77
2023/03/01 06:02:48;;;;;;;14.52;9.02;;;;;;;-3.50;63.38;101536.53;5095611;28;20052;-76
2023/03/01 06:05:15;;;;;;;;;;;;;;;-3.59;63.65;101534.97;5095762;28;20056;-76
2023/03/01 06:07:43;;;;;;;14.38;9.10;;;;;;;-3.56;64.00;101535.44;5095674;28;19931;-76
2023/03/01 06:10:13;;;;;;;12.73;9.23;;;;;;;-3.59;63.79;101534.97;5095360;28;20067;-77
2023/03/01 06:12:42;;;;;;;12.57;9.02;;;;;;;-3.54;64.37;101533.34;5095394;28;20063;-76
2023/03/01 06:15:14;;;;;;;14.25;9.65;;;;;;;-3.51;63.73;101540.28;5095420;28;20543;-76
2023/03/01 06:17:47;;;;;;;12.13;8.68;;;;;;;-3.50;63.79;101539.25;5096192;28;20064;-76
2023/03/01 06:20:24;;;;;;;15.55;9.95;;;;;;;-3.46;63.73;101543.28;5095784;28;20074;-76
2023/03/01 06:22:52;;;;;;;14.60;9.23;;;;;;;-3.44;63.53;101541.22;5095892;28;20063;-76
2023/03/01 06:25:22;;;;;;;15.02;9.43;;;;;;;-3.42;63.67;101536.41;5094339;28;20056;-76
2023/03/01 06:27:51;;;;;;;14.50;9.82;;;;;;;-3.37;63.43;101542.09;5094812;28;20060;-77
2023/03/01 06:30:21;;;;;;;12.18;8.30;;;;;;;-3.29;63.09;101539.25;5095419;28;20066;-76
2023/03/01 06:33:00;;;;;;;11.73;8.57;;;;;;;-3.27;63.06;101536.34;5095794;28;20056;-76
2023/03/01 06:35:30;;;;;;;12.37;8.67;;;;;;;-3.28;63.35;101535.47;5095590;28;20052;-76
2023/03/01 06:37:59;;;;;;;13.68;9.65;;;;;;;-3.26;63.59;101530.66;5094897;28;20078;-77
2023/03/01 06:40:30;;;;;;;15.55;9.18;;;;;;;-3.21;63.41;101529.22;5094802;28;20063;-76
2023/03/01 06:42:59;;;;;;;13.35;9.07;;;;;;;-3.18;63.48;101521.50;5094240;28;20056;-77
2023/03/01 06:45:29;;;;;;;14.05;9.65;;;;;;;-3.12;63.61;101520.72;5095976;28;20056;-76
2023/03/01 06:48:08;;;;;;;13.07;9.50;;;;;;;-3.09;63.46;101520.34;5094446;28;20056;-76
2023/03/01 06:50:45;;;;;;;15.15;10.65;;;;;;;-2.99;63.31;101521.88;5094943;28;20413;-76
2023/03/01 06:53:14;;;;;;;20.92;12.23;;;;;;;-2.74;62.89;101522.25;5094397;28;20515;-76
2023/03/01 06:55:41;;;;;;;17.20;10.80;;;;;;;-1.75;62.57;101519.06;5094863;28;20056;-76
2023/03/01 06:58:11;;;;;;;12.05;9.02;;;;;;;-0.39;60.36;101512.25;5094722;28;20051;-75
2023/03/01 07:00:40;;;;;;;9.88;7.95;;;;;;;0.89;58.16;101508.50;5095206;28;20055;-76
2023/03/01 07:03:17;;;;;;;12.45;7.97;;;;;;;1.93;54.31;101508.66;5094415;28;20056;-76
2023/03/01 07:05:44;;;;;;;11.93;7.88;;;;;;;3.07;52.56;101505.00;5094302;28;20127;-77
2023/03/01 07:08:16;;;;;;;11.00;8.27;;;;;;;3.85;49.63;101497.34;5094561;28;20064;-76
2023/03/01 07:10:47;;;;;;;12.02;8.88;;;;;;;4.66;48.75;101491.69;5094746;28;20059;-77
2023/03/01 07:13:17;;;;;;;11.02;8.25;;;;;;;5.66;45.22;101484.34;5094035;28;20052;-76
2023/03/01 07:15:45;;;;;;;10.82;8.65;;;;;;;6.42;43.67;101489.13;5094148;28;20060;-77
2023/03/01 07:18:16;;;;;;;12.05;9.35;;;;;;;7.37;40.43;101487.66;5093920;28;20063;-77
2023/03/01 07:20:44;;;;;;;11.20;8.77;;;;;;;8.10;40.04;101483.00;5093795;28;20060;-76
2023/03/01 07:23:11;;;;;;;10.85;8.77;;;;;;;8.52;37.67;101476.47;5094447;28;20495;-76
2023/03/01 07:28:41;;;;;;;11.63;9.88;;;;;;;10.23;34.31;101472.19;5091945;28;20052;-77
2023/03/01 07:31:28;;;;;;;;;;;;;;;;;;;;;
2023/03/01 07:33:57;;;;;;;15.15;11.15;;;;;;;11.36;33.06;101469.31;5090497;28;20055;-76
2023/03/01 07:36:32;;;;;;;17.63;13.75;;;;;;;12.17;31.18;101459.09;5093699;28;20397;-76
2023/03/01 07:39:02;;;;;;;15.63;11.75;;;;;;;12.72;31.21;101452.13;5094154;28;20048;-77
2023/03/01 07:41:29;;;;;;;14.98;12.43;;;;;;;13.28;29.72;101448.34;5094420;28;20412;-77
2023/03/01 07:44:20;;;;;;;17.77;13.40;;;;;;;13.85;28.40;101448.06;5094058;28;20052;-76
2023/03/01 07:46:49;;;;;;;18.33;15.00;;;;;;;14.90;27.92;101441.44;5093994;28;20048;-76
2023/03/01 07:49:18;;;;;;;18.15;15.45;;;;;;;14.79;27.84;101454.06;5093896;28;20059;-77
2023/03/01 07:51:46;;;;;;;18.35;16.45;;;;;;;15.49;26.09;101440.44;5094032;28;20060;-76
2023/03/01 07:54:13;;;;;;;18.73;16.73;;;;;;;16.12;25.52;101447.56;5093023;28;20044;-77
2023/03/01 07:56:41;;;;;;;15.75;13.02;;;;;;;16.59;25.17;101450.59;5093716;28;20060;-76
2023/03/01 07:59:09;;;;;;;14.18;10.77;;;;;;;17.15;24.73;101442.22;5093986;28;20058;-77
2023/03/01 08:01:39;;;;;;;9.75;8.30;;;;;;;17.68;23.57;101442.88;5093729;28;20060;-77
2023/03/01 08:04:08;;;;;;;9.23;8.32;;;;;;;18.28;23.40;101440.88;5092818;28;20060;-77
2023/03/01 08:06:37;;;;;;;9.13;8.10;;;;;;;18.93;23.45;101432.84;5093071;28;20060;-77
2023/03/01 08:09:05;;;;;;;9.50;8.48;;;;;;;19.56;22.29;101438.25;5092879;28;20060;-76
2023/03/01 08:11:41;;;;;;;9.98;8.13;;;;;;;19.98;21.96;101442.88;5094039;28;20060;-77
2023/03/01 08:14:10;;;;;;;9.27;8.02;;;;;;;19.93;21.20;101445.94;5094276;28;20055;-76
2023/03/01 08:16:38;;;;;;;10.30;8.27;;;;;;;20.52;21.56;101447.38;5094502;28;20059;-77
2023/03/01 08:19:10;;;;;;;11.60;8.93;;;;;;;21.72;20.35;101439.78;5094814;28;20080;-77
2023/03/01 08:21:39;;;;;;;10.23;9.23;;;;;;;22.03;19.93;101435.25;5094073;28;20063;-77
2023/03/01 08:24:09;;;;;;;11.25;8.80;;;;;;;22.46;19.19;101439.06;5093125;28;20059;-77
2023/03/01 08:26:38;;;;;;;10.95;9.73;;;;;;;22.67;19.27;101436.69;5093491;28;20058;-77
2023/03/01 08:29:08;;;;;;;11.13;9.25;;;;;;;23.07;18.79;101434.66;5093472;28;20060;-77
2023/03/01 08:31:39;;;;;;;11.07;9.07;;;;;;;23.45;18.63;101433.72;5092840;28;20048;-77
2023/03/01 08:34:09;;;;;;;10.05;8.25;;;;;;;23.53;18.43;101429.00;5093055;28;20056;-77
2023/03/01 08:36:40;;;;;;;10.13;8.52;;;;;;;24.20;18.04;101421.94;5093071;28;20074;-77
2023/03/01 08:39:09;;;;;;;9.20;8.25;;;;;;;24.20;18.15;101428.44;5092700;28;20059;-78
2023/03/01 08:41:41;;;;;;;7.90;7.20;;;;;;;24.80;17.39;101429.63;5093766;28;20543;-77
2023/03/01 08:44:08;;;;;;;9.48;8.30;;;;;;;25.38;16.77;101426.19;5093741;28;20056;-77
2023/03/01 08:46:41;;;;;;;8.48;7.38;;;;;;;25.97;15.92;101423.44;5093714;28;20067;-77
2023/03/01 08:49:14;;;;;;;8.95;7.63;;;;;;;26.22;15.74;101419.94;5095730;28;20481;-77
2023/03/01 08:51:44;;;;;;;13.02;7.57;;;;;;;27.16;15.08;101423.97;5098122;28;20416;-77
2023/03/01 08:54:14;;;;;;;7.75;7.05;;;;;;;27.31;14.63;101417.88;5097374;28;20416;-77
2023/03/01 08:56:42;;;;;;;9.40;7.97;;;;;;;27.61;14.57;101413.81;5096873;28;20052;-77
2023/03/01 08:59:11;;;;;;;8.00;6.93;;;;;;;28.25;14.03;101417.84;5097290;28;20059;-77
2023/03/01 09:01:39;;;;;;;7.60;6.85;;;;;;;28.61;13.95;101412.00;5096945;28;20055;-77
2023/03/01 09:04:07;;;;;;;7.43;5.95;;;;;;;29.19;12.96;101406.75;5098287;28;20056;-77
2023/03/01 09:06:45;;;;;;;7.40;6.75;;;;;;;29.70;12.78;101417.47;5098199;28;20056;-77
2023/03/01 09:09:16;;;;;;;7.43;6.72;;;;;;;30.28;12.87;101409.06;5096821;28;20067;-76
2023/03/01 09:11:45;;;;;;;7.53;6.40;;;;;;;30.35;12.75;101409.00;5098360;28;20068;-77
2023/03/01 09:14:13;;;;;;;7.25;6.40;;;;;;;30.57;12.32;101397.22;5097214;28;20145;-75
2023/03/01 09:17:08;;;;;;;6.20;5.60;;;;;;;31.09;11.47;101402.69;5096559;28;20060;-69
2023/03/01 09:19:35;;;;;;;6.32;5.72;;;;;;;31.14;11.97;101390.69;5088891;28;20056;-68
2023/03/01 09:22:14;;;;;;;6.40;5.80;;;;;;;31.70;11.88;101387.28;5096132;28;20064;-69
2023/03/01 09:24:41;;;;;;;;;;;;;;;31.92;10.95;101376.19;5079386;28;20056;-69
2023/03/01 09:27:09;;;;;;;5.72;5.00;;;;;;;32.88;10.66;101377.53;5076615;28;19920;-69
2023/03/01 09:29:38;;;;;;;5.38;4.88;;;;;;;33.26;10.63;101369.19;5076098;28;20056;-71
2023/03/01 09:32:12;;;;;;;5.63;4.43;;;;;;;33.40;10.51;101368.03;5076773;28;20079;-69
2023/03/01 09:38:08;;;;;;;6.47;4.97;;;;;;;33.79;10.06;101348.03;5035210;28;20057;-70
2023/03/01 09:41:12;;;;;;;;;;;;;;;;;;;;;
2023/03/01 09:43:46;;;;;;;4.88;4.40;;;;;;;34.68;9.55;101342.56;5077403;28;20048;-71
2023/03/01 09:46:16;;;;;;;5.35;4.85;;;;;;;34.90;9.52;101339.81;5077178;28;20064;-69
2023/03/01 09:48:50;;;;;;;5.93;4.57;;;;;;;34.64;9.45;101338.97;5077693;28;20048;-68
2023/03/01 09:51:20;;;;;;;5.47;4.55;;;;;;;35.27;9.39;101342.34;5076186;28;20063;-69
2023/03/01 09:53:49;;;;;;;5.10;4.50;;;;;;;35.35;9.28;101344.53;5076158;28;20056;-71
2023/03/01 09:56:23;;;;;;;5.88;4.70;;;;;;;35.61;8.59;101343.66;5075664;28;20056;-71
2023/03/01 09:58:59;;;;;;;6.70;4.97;;;;;;;34.97;9.60;101341.66;5075204;28;20056;-69
2023/03/01 10:01:41;;;;;;;5.68;5.10;;;;;;;34.57;9.47;101348.66;5075221;28;20068;-68
2023/03/01 10:04:33;;;;;;;5.68;4.78;;;;;;;34.70;9.39;101347.91;5075257;28;20394;-68
2023/03/01 10:10:58;;;;;;;5.57;5.07;;;;;;;34.62;9.64;101352.25;5071694;28;20429;-69
2023/03/01 10:13:34;;;;;;;5.35;4.85;;;;;;;35.98;8.72;101347.72;5074980;28;20057;-70
2023/03/01 10:16:10;;;;;;;5.95;5.35;;;;;;;36.38;8.23;101341.25;5074755;28;20063;-69
2023/03/01 10:18:40;;;;;;;5.35;4.82;;;;;;;37.20;8.81;101342.16;5075184;28;20059;-69
2023/03/01 10:21:19;;;;;;;5.68;4.72;;;;;;;37.93;8.19;101336.44;5074748;28;20060;-70
2023/03/01 10:23:52;;;;;;;5.55;5.05;;;;;;;38.33;7.74;101328.81;5082782;28;20056;-70
2023/03/01 10:26:49;;;;;;;6.43;5.18;;;;;;;37.69;8.06;101332.56;5095506;28;20063;-69
2023/03/01 10:29:21;;;;;;;6.13;5.30;;;;;;;36.98;8.38;101337.19;5085257;28;20056;-69
2023/03/01 10:31:51;;;;;;;6.30;5.18;;;;;;;36.67;8.18;101323.53;5095396;28;20060;-70
2023/03/01 10:34:40;;;;;;;5.00;4.25;;;;;;;37.68;7.73;101317.22;5095403;28;20074;-69
2023/03/01 10:37:14;;;;;;;5.22;4.55;;;;;;;38.40;7.68;101316.81;5095932;28;20052;-70
2023/03/01 10:39:57;;;;;;;5.85;4.68;;;;;;;38.03;7.52;101310.22;5095419;28;20055;-70
2023/03/01 10:42:29;;;;;;;5.90;5.20;;;;;;;37.97;7.38;101308.00;5095082;28;20059;-70
2023/03/01 10:45:17;;;;;;;5.45;4.95;;;;;;;37.41;7.79;101299.72;5096061;28;20052;-70
2023/03/01 10:47:58;;;;;;;5.35;4.85;;;;;;;36.89;7.68;101311.03;5097281;28;20060;-69
2023/03/01 10:50:26;;;;;;;5.03;4.50;;;;;;;36.42;7.79;101294.69;5096193;28;20407;-69
2023/03/01 10:52:59;;;;;;;5.57;5.07;;;;;;;36.75;8.89;101300.84;5096144;28;20056;-69
2023/03/01 10:55:35;;;;;;;5.72;5.07;;;;;;;37.78;7.86;101289.75;5095987;28;20048;-69
2023/03/01 11:01:25;;;;;;;7.43;5.20;;;;;;;40.29;6.73;101285.00;5089882;28;20044;-70
2023/03/01 11:04:15;;;;;;;5.32;4.85;;;;;;;40.87;6.54;101278.78;5094812;28;20063;-70
2023/03/01 11:07:08;;;;;;;8.65;5.15;;;;;;;41.79;6.62;101277.34;5096987;28;20052;-70
2023/03/01 11:09:38;;;;;;;6.03;5.53;;;;;;;41.23;6.77;101279.56;5096638;28;20051;-69
2023/03/01 11:12:15;;;;;;;5.80;5.20;;;;;;;42.42;6.46;101281.69;5095420;28;20400;-71
2023/03/01 11:14:48;;;;;;;7.32;4.85;;;;;;;42.88;6.54;101277.81;5096291;28;20056;-70
2023/03/01 11:17:25;;;;;;;5.45;4.93;;;;;;;42.70;6.02;101282.75;5096769;28;20052;-70
2023/03/01 11:20:07;;;;;;;6.57;5.30;;;;;;;42.81;6.21;101267.34;5096646;28;20048;-69
2023/03/01 11:22:48;;;;;;;5.57;5.07;;;;;;;42.83;6.50;101258.03;5097237;28;20067;-70
2023/03/01 11:25:18;;;;;;;6.85;5.22;;;;;;;42.91;6.21;101254.13;5097600;28;20052;-70
2023/03/01 11:27:50;;;;;;;7.30;4.75;;;;;;;43.22;6.40;101254.53;5097722;28;20408;-70
2023/03/01 11:30:27;;;;;;;5.53;5.03;;;;;;;43.55;5.79;101254.69;5098353;28;20059;-71
2023/03/01 11:33:04;;;;;;;6.63;5.72;;;;;;;43.17;6.05;101251.03;5097096;28;20059;-70
2023/03/01 11:35:35;;;;;;;5.88;5.38;;;;;;;42.87;6.13;101250.63;5096999;28;20048;-70
2023/03/01 11:38:23;;;;;;;5.68;4.80;;;;;;;42.91;6.25;101250.41;5095941;28;20063;-70
2023/03/01 11:40:58;;;;;;;7.05;5.40;;;;;;;43.21;5.84;101255.88;5095439;28;20067;-70
2023/03/01 11:43:36;;;;;;;5.78;4.70;;;;;;;43.23;5.93;101244.41;5095699;28;20059;-70
2023/03/01 11:46:42;;;;;;;6.18;5.35;;;;;;;43.16;6.09;101246.53;5095607;28;20056;-69
2023/03/01 11:49:37;;;;;;;7.25;5.05;;;;;;;43.71;5.74;101256.09;5096894;28;20059;-70
2023/03/01 11:52:13;;;;;;;8.23;5.43;;;;;;;42.65;5.98;101248.34;5096419;28;20507;-70
2023/03/01 11:54:59;;;;;;;6.38;5.43;;;;;;;42.12;6.72;101246.84;5096764;28;20059;-71
2023/03/01 11:57:47;;;;;;;5.93;5.22;;;;;;;42.42;6.12;101255.31;5095953;28;20052;-70
2023/03/01 12:01:05;;;;;;;5.88;5.38;;;;;;;41.94;6.45;101242.94;5095299;28;20060;-69